createdAt,value
2023-04-12T11:39:05.566Z,500.00
2023-04-12T11:40:05.543Z,500.00
2023-04-12T11:41:05.548Z,500.00
2023-04-12T11:42:05.555Z,500.00
2023-04-12T11:43:05.515Z,500.00
2023-04-12T11:44:05.511Z,400.00
2023-04-12T11:45:12.106Z,400.00
2023-04-12T11:46:06.576Z,400.00
2023-04-12T11:47:05.511Z,400.00
2023-04-12T11:48:05.561Z,400.00
2023-04-12T11:49:05.501Z,400.00
2023-04-12T11:50:05.513Z,400.00
2023-04-12T11:51:11.385Z,400.00
2023-04-12T11:52:06.472Z,400.00
2023-04-12T11:53:05.520Z,400.00
2023-04-12T11:54:05.448Z,400.00
2023-04-12T11:55:05.512Z,400.00
2023-04-12T11:56:05.426Z,400.00
2023-04-12T11:57:05.883Z,400.00
2023-04-12T11:58:05.410Z,400.00
2023-04-12T11:59:05.424Z,400.00
2023-04-12T12:00:05.463Z,400.00
2023-04-12T12:01:05.403Z,400.00
2023-04-12T12:02:17.155Z,400.00
2023-04-12T12:03:13.990Z,400.00
2023-04-12T12:04:06.815Z,400.00
2023-04-12T12:05:05.486Z,400.00
2023-04-12T12:06:05.524Z,400.00
2023-04-12T12:07:05.899Z,400.00
2023-04-12T12:08:05.348Z,400.00
2023-04-12T12:09:05.365Z,400.00
2023-04-12T12:10:05.333Z,400.00
2023-04-12T12:11:08.291Z,400.00
2023-04-12T12:12:06.229Z,400.00
2023-04-12T12:13:05.320Z,400.00
2023-04-12T12:14:05.325Z,400.00
2023-04-12T12:15:05.328Z,400.00
2023-04-12T12:16:05.324Z,400.00
2023-04-12T12:17:05.312Z,400.00
2023-04-12T12:18:05.443Z,400.00
2023-04-12T12:19:05.293Z,400.00
2023-04-12T12:20:05.281Z,400.00
2023-04-12T12:21:05.272Z,400.00
2023-04-12T12:22:05.293Z,400.00
2023-04-12T12:23:05.259Z,400.00
2023-04-12T12:24:05.279Z,400.00
2023-04-12T12:25:05.251Z,400.00
2023-04-12T12:26:14.794Z,400.00
2023-04-12T12:27:06.352Z,400.00
2023-04-12T12:28:05.463Z,400.00
2023-04-12T12:29:05.324Z,400.00
2023-04-12T12:30:05.350Z,400.00
2023-04-12T12:31:05.380Z,400.00
2023-04-12T12:32:05.375Z,400.00
2023-04-12T12:33:05.468Z,400.00
2023-04-12T12:35:05.387Z,400.00
2023-04-12T12:36:05.426Z,400.00
2023-04-12T12:37:05.438Z,432.00
2023-04-12T12:38:05.390Z,476.00
2023-04-12T12:39:05.418Z,505.00
2023-04-12T12:40:05.436Z,513.00
2023-04-12T12:41:05.451Z,525.00
2023-04-12T12:42:05.611Z,527.00
2023-04-12T12:43:05.429Z,526.00
2023-04-12T12:44:05.454Z,521.00
2023-04-12T12:45:05.466Z,521.00
2023-04-12T12:46:05.513Z,525.00
2023-04-12T12:47:13.620Z,511.00
2023-04-12T12:48:06.522Z,511.00
2023-04-12T12:49:05.475Z,509.00
2023-04-12T12:50:05.473Z,513.00
2023-04-12T12:51:05.432Z,509.00
2023-04-12T12:52:05.447Z,504.00
2023-04-12T12:53:05.405Z,500.00
2023-04-12T12:54:05.400Z,511.00
2023-04-12T12:55:05.451Z,530.00
2023-04-12T12:56:05.417Z,511.00
2023-04-12T12:57:05.433Z,517.00
2023-04-12T12:58:08.447Z,523.00
2023-04-12T12:59:05.478Z,525.00
2023-04-12T13:00:05.370Z,531.00
2023-04-12T13:01:05.374Z,528.00
2023-04-12T13:02:05.582Z,528.00
2023-04-12T13:03:05.465Z,525.00
2023-04-12T13:04:05.548Z,528.00
2023-04-12T13:05:05.414Z,544.00
2023-04-12T13:06:05.318Z,533.00
2023-04-12T13:07:05.314Z,530.00
2023-04-12T13:08:05.331Z,525.00
2023-04-12T13:09:05.315Z,532.00
2023-04-12T13:10:05.321Z,545.00
2023-04-12T13:11:05.299Z,534.00
2023-04-12T13:12:05.405Z,529.00
2023-04-12T13:13:05.280Z,543.00
2023-04-12T13:14:05.277Z,536.00
2023-04-12T13:15:18.012Z,532.00
2023-04-12T13:16:06.273Z,533.00
2023-04-12T13:17:05.291Z,534.00
2023-04-12T13:18:05.303Z,536.00
2023-04-12T13:19:05.233Z,533.00
2023-04-12T13:20:05.245Z,535.00
2023-04-12T13:21:05.250Z,528.00
2023-04-12T13:22:05.231Z,532.00
2023-04-12T13:23:05.234Z,531.00
2023-04-12T13:24:05.236Z,531.00
2023-04-12T13:25:05.221Z,498.00
2023-04-12T13:26:05.214Z,518.00
2023-04-12T13:27:05.172Z,534.00
2023-04-12T13:28:05.193Z,518.00
2023-04-12T13:29:05.168Z,502.00
2023-04-12T13:30:05.176Z,515.00
2023-04-12T13:31:05.178Z,525.00
2023-04-12T13:32:05.250Z,517.00
2023-04-12T13:33:05.186Z,522.00
2023-04-12T13:34:05.148Z,501.00
2023-04-12T13:35:05.151Z,500.00
2023-04-12T13:36:05.117Z,503.00
2023-04-12T13:37:05.132Z,512.00
2023-04-12T13:38:05.175Z,505.00
2023-04-12T13:39:05.090Z,500.00
2023-04-12T13:40:05.273Z,509.00
2023-04-12T13:41:05.162Z,520.00
2023-04-12T13:42:05.196Z,503.00
2023-04-12T13:43:05.209Z,500.00
2023-04-12T13:44:05.237Z,509.00
2023-04-12T13:45:05.301Z,527.00
2023-04-12T13:46:05.333Z,529.00
2023-04-12T13:47:05.401Z,524.00
2023-04-12T13:48:05.543Z,500.00
2023-04-12T13:49:05.397Z,518.00
2023-04-12T13:50:05.837Z,491.00
2023-04-12T13:51:05.466Z,563.00
2023-04-12T13:52:05.529Z,584.00
2023-04-12T13:53:05.568Z,564.00
2023-04-12T13:54:05.567Z,577.00
2023-04-12T13:55:06.309Z,584.00
2023-04-12T13:56:06.311Z,605.00
2023-04-12T13:57:05.679Z,614.00
2023-04-12T13:58:05.807Z,617.00
2023-04-12T13:59:05.721Z,613.00
2023-04-12T14:00:05.810Z,612.00
2023-04-12T14:01:05.792Z,608.00
2023-04-12T14:02:05.830Z,616.00
2023-04-12T14:03:05.963Z,621.00
2023-04-12T14:04:05.849Z,635.00
2023-04-12T14:05:05.943Z,637.00
2023-04-12T14:06:05.844Z,626.00
2023-04-12T14:07:05.849Z,622.00
2023-04-12T14:08:05.881Z,629.00
2023-04-12T14:09:05.935Z,623.00
2023-04-12T14:10:05.918Z,589.00
2023-04-12T14:11:05.902Z,603.00
2023-04-12T14:12:05.902Z,607.00
2023-04-12T14:13:05.937Z,627.00
2023-04-12T14:14:05.929Z,603.00
2023-04-12T14:15:06.341Z,612.00
2023-04-12T14:16:05.975Z,587.00
2023-04-12T14:17:06.043Z,571.00
2023-04-12T14:18:06.034Z,599.00
2023-04-12T14:19:06.794Z,611.00
2023-04-12T14:20:05.998Z,619.00
2023-04-12T14:21:05.966Z,583.00
2023-04-12T14:22:05.989Z,601.00
2023-04-12T14:23:08.013Z,597.00
2023-04-12T14:24:06.010Z,601.00
2023-04-12T14:25:06.041Z,591.00
2023-04-12T14:26:06.048Z,578.00
2023-04-12T14:27:06.086Z,591.00
2023-04-12T14:28:06.091Z,596.00
2023-04-12T14:29:06.059Z,568.00
2023-04-12T14:30:06.080Z,570.00
2023-04-12T14:31:06.702Z,605.00
2023-04-12T14:32:06.132Z,618.00
2023-04-12T14:33:06.200Z,609.00
2023-04-12T14:34:06.098Z,618.00
2023-04-12T14:35:06.128Z,629.00
2023-04-12T14:36:06.133Z,618.00
2023-04-12T14:37:06.167Z,607.00
2023-04-12T14:38:06.169Z,615.00
2023-04-12T14:39:09.279Z,601.00
2023-04-12T14:40:06.212Z,602.00
2023-04-12T14:41:06.176Z,604.00
2023-04-12T14:42:06.219Z,610.00
2023-04-12T14:43:06.224Z,624.00
2023-04-12T14:44:06.175Z,624.00
2023-04-12T14:45:06.150Z,640.00
2023-04-12T14:46:06.185Z,673.00
2023-04-12T14:47:06.162Z,697.00
2023-04-12T14:48:06.234Z,686.00
2023-04-12T14:49:06.147Z,699.00
2023-04-12T14:50:06.126Z,684.00
2023-04-12T14:51:06.133Z,658.00
2023-04-12T14:52:06.128Z,653.00
2023-04-12T14:53:06.097Z,650.00
2023-04-12T14:54:06.095Z,649.00
2023-04-12T14:55:06.096Z,653.00
2023-04-12T14:56:06.096Z,651.00
2023-04-12T14:57:06.088Z,652.00
2023-04-12T14:58:06.114Z,653.00
2023-04-12T14:59:06.163Z,651.00
2023-04-12T15:00:06.070Z,653.00
2023-04-12T15:01:06.097Z,655.00
2023-04-12T15:02:06.223Z,653.00
2023-04-12T15:03:06.215Z,657.00
2023-04-12T15:04:06.401Z,654.00
2023-04-12T15:05:06.147Z,655.00
2023-04-12T15:06:06.037Z,653.00
2023-04-12T15:07:06.028Z,656.00
2023-04-12T15:08:06.016Z,655.00
2023-04-12T15:09:06.593Z,657.00
2023-04-12T15:10:05.998Z,646.00
2023-04-12T15:11:06.019Z,654.00
2023-04-12T15:12:05.983Z,654.00
2023-04-12T15:13:06.011Z,650.00
2023-04-12T15:14:06.332Z,649.00
2023-04-12T15:15:06.530Z,654.00
2023-04-12T15:16:06.041Z,658.00
2023-04-12T15:17:06.036Z,659.00
2023-04-12T15:18:06.107Z,658.00
2023-04-12T15:19:12.612Z,658.00
2023-04-12T15:20:07.095Z,658.00
2023-04-12T15:21:06.304Z,659.00
2023-04-12T15:22:06.100Z,658.00
2023-04-12T15:23:06.155Z,659.00
2023-04-12T15:24:06.061Z,659.00
2023-04-12T15:25:06.318Z,658.00
2023-04-12T15:26:06.044Z,659.00
2023-04-12T15:27:06.858Z,658.00
2023-04-12T15:28:06.041Z,661.00
2023-04-12T15:29:06.022Z,659.00
2023-04-12T15:30:06.095Z,659.00
2023-04-12T15:31:06.059Z,655.00
2023-04-12T15:32:06.065Z,658.00
2023-04-12T15:33:06.057Z,661.00
2023-04-12T15:34:06.066Z,657.00
2023-04-12T15:35:14.999Z,658.00
2023-04-12T15:36:07.053Z,659.00
2023-04-12T15:37:06.115Z,659.00
2023-04-12T15:38:06.086Z,658.00
2023-04-12T15:39:06.032Z,659.00
